Time;durP1;ratioP1;P1;durP2;ratioP2;P2;SDS_P1;SDS_P2;PMS_P1;PMS_P2;Temp;Humidity;BMP_temperature;BMP_pressure;BME280_temperature;BME280_humidity;BME280_pressure;Samples;Min_cycle;Max_cycle;Signal;HPM_P1;HPM_P2
2022/04/01 00:01:19;;;;;;;19.10;14.87;;;4.30;71.70;;;;;;4992889;28;20400;-75
2022/04/01 00:03:45;;;;;;;17.02;14.18;;;4.30;72.40;;;;;;4993067;28;20390;-75
2022/04/01 00:06:10;;;;;;;17.20;14.38;;;4.30;69.20;;;;;;4993374;28;20406;-75
2022/04/01 00:08:36;;;;;;;16.38;13.40;;;4.40;71.40;;;;;;4977720;28;20478;-75
2022/04/01 00:11:01;;;;;;;16.80;13.63;;;4.40;68.70;;;;;;4993913;28;20390;-75
2022/04/01 00:13:27;;;;;;;16.57;13.10;;;4.40;68.60;;;;;;4994008;28;20492;-77
2022/04/01 00:15:53;;;;;;;17.67;13.67;;;4.30;69.00;;;;;;4993565;28;20479;-75
2022/04/01 00:18:18;;;;;;;17.03;13.60;;;4.20;68.90;;;;;;4993551;28;20397;-75
2022/04/01 00:20:44;;;;;;;19.30;14.33;;;4.20;70.20;;;;;;4992790;28;20390;-75
2022/04/01 00:23:12;;;;;;;18.27;14.35;;;4.20;72.00;;;;;;4992825;28;20418;-75
2022/04/01 00:25:39;;;;;;;17.90;14.10;;;4.20;70.20;;;;;;4993760;28;20424;-75
2022/04/01 00:28:05;;;;;;;17.00;13.43;;;4.30;69.80;;;;;;4996049;28;20414;-76
2022/04/01 00:30:33;;;;;;;15.73;12.95;;;4.40;72.90;;;;;;4994336;28;20398;-76
2022/04/01 00:32:59;;;;;;;18.10;14.20;;;4.30;70.30;;;;;;4993433;28;20763;-76
2022/04/01 00:35:25;;;;;;;15.05;13.30;;;4.20;68.90;;;;;;4993981;28;20409;-76
2022/04/01 00:37:52;;;;;;;17.83;13.03;;;4.30;70.40;;;;;;4975839;28;20390;-76
2022/04/01 00:40:19;;;;;;;15.70;13.48;;;4.30;70.10;;;;;;4975989;28;20409;-75
2022/04/01 00:42:45;;;;;;;16.85;13.30;;;4.10;71.00;;;;;;4993468;28;20478;-75
2022/04/01 00:45:11;;;;;;;19.38;14.15;;;4.20;67.90;;;;;;4996368;28;20422;-75
2022/04/01 00:47:38;;;;;;;15.88;13.48;;;4.10;68.20;;;;;;4996027;28;20397;-75
2022/04/01 00:50:05;;;;;;;19.90;15.37;;;4.10;67.30;;;;;;4999386;28;20390;-75
2022/04/01 00:52:32;;;;;;;20.38;15.15;;;4.10;70.20;;;;;;4967923;28;20402;-74
2022/04/01 00:54:59;;;;;;;18.83;14.20;;;4.10;69.40;;;;;;5002303;28;20475;-75
2022/04/01 00:57:26;;;;;;;18.38;14.90;;;4.10;70.20;;;;;;4983248;28;20387;-75
2022/04/01 00:59:54;;;;;;;20.30;15.40;;;4.20;68.20;;;;;;4996113;28;20391;-75
2022/04/01 01:02:20;;;;;;;21.35;14.65;;;4.20;69.60;;;;;;4992311;28;20725;-75
2022/04/01 01:04:46;;;;;;;15.32;13.38;;;4.10;67.40;;;;;;4992339;28;20391;-75
2022/04/01 01:07:13;;;;;;;15.75;13.00;;;4.20;64.10;;;;;;4992835;28;20460;-75
2022/04/01 01:09:39;;;;;;;18.02;14.63;;;4.10;65.30;;;;;;4993118;28;20397;-75
2022/04/01 01:12:06;;;;;;;15.57;13.02;;;4.00;67.60;;;;;;4993505;28;20390;-75
2022/04/01 01:14:34;;;;;;;18.45;13.30;;;4.00;65.20;;;;;;4996837;28;20520;-75
2022/04/01 01:17:02;;;;;;;15.82;13.10;;;4.00;63.70;;;;;;4993126;28;20815;-75
2022/04/01 01:19:30;;;;;;;15.32;13.57;;;4.00;63.70;;;;;;4992163;28;20412;-76
2022/04/01 01:21:56;;;;;;;15.63;14.00;;;4.00;66.20;;;;;;4991984;28;20450;-76
2022/04/01 01:24:33;;;;;;;20.95;13.40;;;3.90;66.70;;;;;;4991962;28;20390;-76
2022/04/01 01:26:59;;;;;;;14.18;12.07;;;4.00;67.70;;;;;;4974440;28;20391;-75
2022/04/01 01:29:27;;;;;;;16.85;13.20;;;4.00;64.90;;;;;;4992089;28;20397;-75
2022/04/01 01:31:55;;;;;;;15.63;12.10;;;4.10;66.90;;;;;;4991652;28;20473;-76
2022/04/01 01:34:22;;;;;;;16.75;12.70;;;4.10;62.70;;;;;;4991930;28;20501;-76
2022/04/01 01:36:48;;;;;;;15.23;11.70;;;4.00;62.30;;;;;;4991705;28;20418;-75
2022/04/01 01:39:14;;;;;;;15.02;12.68;;;3.90;63.00;;;;;;4991820;28;20425;-75
2022/04/01 01:41:41;;;;;;;22.20;12.30;;;3.90;63.90;;;;;;4991702;28;20574;-75
2022/04/01 01:44:06;;;;;;;15.27;11.40;;;3.90;62.30;;;;;;4979264;28;20398;-75
2022/04/01 01:46:32;;;;;;;15.30;12.40;;;3.90;62.50;;;;;;4994129;28;20481;-75
2022/04/01 01:48:58;;;;;;;17.03;12.00;;;3.90;64.20;;;;;;4991637;28;20425;-75
2022/04/01 01:56:52;;;;;;;13.40;10.38;;;4.00;59.70;;;;;;4991559;28;20416;-75
2022/04/01 01:59:17;;;;;;;14.23;11.00;;;3.90;58.40;;;;;;4974074;28;20430;-75
2022/04/01 02:01:43;;;;;;;13.05;10.30;;;4.00;59.70;;;;;;4974251;28;20394;-75
2022/04/01 02:04:10;;;;;;;12.10;10.40;;;3.90;58.20;;;;;;4991477;28;20537;-75
2022/04/01 02:06:36;;;;;;;14.63;11.43;;;4.00;59.00;;;;;;4974083;28;20401;-75
2022/04/01 02:09:02;;;;;;;15.25;10.80;;;3.80;58.90;;;;;;4991651;28;20387;-75
2022/04/01 02:11:28;;;;;;;14.88;11.05;;;3.90;58.30;;;;;;4991389;28;20400;-75
2022/04/01 02:13:54;;;;;;;15.80;10.63;;;3.80;59.00;;;;;;4991133;28;20493;-75
2022/04/01 02:16:21;;;;;;;13.25;11.60;;;3.80;58.50;;;;;;4991421;28;20445;-75
2022/04/01 02:18:47;;;;;;;17.40;12.20;;;3.80;58.60;;;;;;4991093;28;20409;-74
2022/04/01 02:21:15;;;;;;;15.48;12.75;;;3.80;61.20;;;;;;4991201;28;20426;-76
2022/04/01 02:23:44;;;;;;;17.10;12.40;;;3.80;63.40;;;;;;4991476;28;20386;-74
2022/04/01 02:26:10;;;;;;;16.88;13.15;;;3.80;59.00;;;;;;4991359;28;20743;-74
2022/04/01 02:28:40;;;;;;;13.68;11.80;;;3.80;59.40;;;;;;4991154;28;20906;-75
2022/04/01 02:31:06;;;;;;;15.18;12.15;;;3.70;59.00;;;;;;4990765;28;20405;-75
2022/04/01 02:33:33;;;;;;;13.40;11.25;;;3.70;57.80;;;;;;4991112;28;20493;-75
2022/04/01 02:35:59;;;;;;;12.32;11.02;;;3.70;58.90;;;;;;4991023;28;20629;-75
2022/04/01 02:38:25;;;;;;;13.02;10.73;;;3.60;57.90;;;;;;4991419;28;20387;-75
2022/04/01 02:40:53;;;;;;;12.60;10.40;;;3.60;57.60;;;;;;4973440;28;20490;-75
2022/04/01 02:43:19;;;;;;;11.80;10.40;;;3.50;59.80;;;;;;4974025;28;20378;-75
2022/04/01 02:45:45;;;;;;;11.05;9.88;;;3.60;59.00;;;;;;4994140;28;20469;-75
2022/04/01 02:48:11;;;;;;;12.43;10.63;;;3.60;56.50;;;;;;4995237;28;20458;-76
2022/04/01 02:50:37;;;;;;;13.82;11.15;;;3.50;60.00;;;;;;4994827;28;20390;-75
2022/04/01 02:53:02;;;;;;;18.45;12.90;;;3.50;58.80;;;;;;4977203;28;20666;-74
2022/04/01 02:55:28;;;;;;;15.50;12.30;;;3.40;59.50;;;;;;4994854;28;20390;-74
2022/04/01 02:57:53;;;;;;;16.35;13.18;;;3.50;60.00;;;;;;4994468;28;20386;-75
2022/04/01 03:00:23;;;;;;;16.17;12.40;;;3.50;59.20;;;;;;4994900;28;20402;-75
2022/04/01 03:02:48;;;;;;;17.30;13.63;;;3.50;58.00;;;;;;4995310;28;20387;-75
2022/04/01 03:05:14;;;;;;;17.83;11.00;;;3.40;59.90;;;;;;4996041;28;20391;-75
2022/04/01 03:07:40;;;;;;;17.30;13.50;;;3.30;57.00;;;;;;4995865;28;20755;-75
2022/04/01 03:10:06;;;;;;;20.60;12.20;;;3.30;59.90;;;;;;4995073;28;20756;-75
2022/04/01 03:12:31;;;;;;;17.88;13.38;;;3.30;59.70;;;;;;4994514;28;20772;-76
2022/04/01 03:14:57;;;;;;;17.57;12.67;;;3.40;61.10;;;;;;4994743;28;20517;-75
2022/04/01 03:17:22;;;;;;;14.47;11.03;;;3.40;58.80;;;;;;4994767;28;20399;-75
2022/04/01 03:19:48;;;;;;;16.20;11.30;;;3.50;57.20;;;;;;4995055;28;20886;-76
2022/04/01 03:22:14;;;;;;;14.35;11.25;;;3.50;58.20;;;;;;4976842;28;20838;-76
2022/04/01 03:24:40;;;;;;;18.05;13.02;;;3.40;58.30;;;;;;4976982;28;20405;-76
2022/04/01 03:27:06;;;;;;;15.43;11.60;;;3.30;57.90;;;;;;4994297;28;20394;-76
2022/04/01 03:29:32;;;;;;;18.25;12.20;;;3.40;55.90;;;;;;4994608;28;20831;-76
2022/04/01 03:31:57;;;;;;;17.90;13.18;;;3.40;56.90;;;;;;4976714;28;20422;-75
2022/04/01 03:34:23;;;;;;;16.83;12.45;;;3.30;58.50;;;;;;4994511;28;20450;-75
2022/04/01 03:36:49;;;;;;;15.05;11.20;;;3.40;60.10;;;;;;4994869;28;20852;-73
2022/04/01 03:39:16;;;;;;;15.73;11.90;;;3.30;56.20;;;;;;5000618;28;20413;-74
2022/04/01 03:41:42;;;;;;;19.08;13.20;;;3.30;58.70;;;;;;5005060;28;20394;-74
2022/04/01 03:44:09;;;;;;;16.30;10.60;;;3.30;60.40;;;;;;4996684;28;20481;-74
2022/04/01 03:47:03;;;;;;;16.85;11.68;;;3.30;57.10;;;;;;4999207;28;20395;-74
2022/04/01 03:49:34;;;;;;;17.17;12.43;;;3.20;59.90;;;;;;5002950;28;20505;-74
2022/04/01 03:52:01;;;;;;;15.48;10.63;;;3.30;60.80;;;;;;4995072;28;20398;-75
2022/04/01 03:54:28;;;;;;;16.63;11.63;;;3.20;59.60;;;;;;5002872;28;20501;-75
2022/04/01 03:57:01;;;;;;;11.60;9.63;;;3.20;59.80;;;;;;4983053;28;20387;-75
2022/04/01 03:59:40;;;;;;;13.48;10.65;;;3.10;57.10;;;;;;4977009;28;20902;-75
2022/04/01 04:02:09;;;;;;;13.13;10.18;;;3.20;58.70;;;;;;4975991;28;20387;-74
2022/04/01 04:04:36;;;;;;;13.48;10.90;;;3.20;58.80;;;;;;4993819;28;20422;-74
2022/04/01 04:07:06;;;;;;;14.48;10.10;;;3.20;57.30;;;;;;4993846;28;20390;-75
2022/04/01 04:09:34;;;;;;;12.65;10.00;;;3.20;57.80;;;;;;4993859;28;20449;-75
2022/04/01 04:12:01;;;;;;;12.38;9.85;;;3.20;56.70;;;;;;4993584;28;20922;-75
2022/04/01 04:14:28;;;;;;;12.48;9.43;;;3.10;57.20;;;;;;4994428;28;20456;-76
2022/04/01 04:16:56;;;;;;;11.35;9.32;;;3.20;57.90;;;;;;4993592;28;20414;-75
2022/04/01 04:19:38;;;;;;;13.40;9.50;;;3.20;58.70;;;;;;4993096;28;20398;-75
2022/04/01 04:22:15;;;;;;;10.27;9.10;;;3.30;57.80;;;;;;4992861;28;20516;-75
2022/04/01 04:25:10;;;;;;;12.43;8.93;;;3.30;57.50;;;;;;4993753;28;20394;-74
2022/04/01 04:27:36;;;;;;;9.77;8.40;;;3.20;57.40;;;;;;4993651;28;20386;-74
2022/04/01 04:30:08;;;;;;;9.80;8.50;;;3.30;58.60;;;;;;4993501;28;20454;-74
2022/04/01 04:32:44;;;;;;;12.10;8.27;;;3.30;58.80;;;;;;4975703;28;20402;-74
2022/04/01 04:35:10;;;;;;;9.93;8.35;;;3.10;57.20;;;;;;4993293;28;20410;-74
2022/04/01 04:37:45;;;;;;;9.90;8.20;;;3.20;58.60;;;;;;4993393;28;20390;-74
2022/04/01 04:40:12;;;;;;;11.98;8.80;;;3.20;60.10;;;;;;4993320;28;20409;-74
2022/04/01 04:42:44;;;;;;;12.23;8.38;;;3.10;59.40;;;;;;4993387;28;20523;-75
2022/04/01 04:45:11;;;;;;;9.68;7.70;;;3.20;58.70;;;;;;4993660;28;20391;-75
2022/04/01 04:47:38;;;;;;;11.13;8.55;;;3.10;59.30;;;;;;4993892;28;20430;-75
2022/04/01 04:50:05;;;;;;;10.95;8.93;;;3.10;60.90;;;;;;4975553;28;20970;-74
2022/04/01 04:52:32;;;;;;;14.13;9.50;;;3.10;58.70;;;;;;4975153;28;20406;-75
2022/04/01 04:54:59;;;;;;;11.95;8.77;;;3.20;58.20;;;;;;4993418;28;20456;-76
2022/04/01 04:57:27;;;;;;;12.20;9.25;;;3.10;58.90;;;;;;4993109;28;20387;-74
2022/04/01 04:59:55;;;;;;;11.38;9.10;;;3.20;61.10;;;;;;4993208;28;20394;-75
2022/04/01 05:03:06;;;;;;;9.48;7.85;;;3.20;58.50;;;;;;4993720;28;20852;-74
2022/04/01 05:05:37;;;;;;;8.20;6.80;;;3.20;56.30;;;;;;4999239;28;20411;-75
2022/04/01 05:08:34;;;;;;;8.90;7.90;;;3.10;55.00;;;;;;5002633;28;20389;-74
2022/04/01 05:11:02;;;;;;;7.75;6.82;;;3.10;58.00;;;;;;4999724;28;20864;-74
2022/04/01 05:14:11;;;;;;;8.05;7.10;;;3.10;56.60;;;;;;4993688;28;20749;-75
2022/04/01 05:16:42;;;;;;;8.25;7.30;;;3.10;56.80;;;;;;5007396;28;20390;-74
2022/04/01 05:19:12;;;;;;;8.32;7.07;;;3.00;57.10;;;;;;5010031;28;20394;-74
2022/04/01 05:21:58;;;;;;;7.28;6.57;;;3.10;58.50;;;;;;5006389;28;20475;-74
2022/04/01 05:24:32;;;;;;;7.40;6.70;;;2.90;57.50;;;;;;5005561;28;20408;-75
2022/04/01 05:27:02;;;;;;;6.75;6.00;;;3.00;57.70;;;;;;4981625;28;20832;-75
2022/04/01 05:29:36;;;;;;;6.50;5.90;;;3.00;55.10;;;;;;4998223;28;20407;-75
2022/04/01 05:32:09;;;;;;;8.40;6.68;;;3.00;56.20;;;;;;4994657;28;20417;-76
2022/04/01 05:34:39;;;;;;;7.70;6.55;;;3.00;53.60;;;;;;4992835;28;20418;-74
2022/04/01 05:37:06;;;;;;;8.57;6.95;;;3.00;53.00;;;;;;4992528;28;20390;-75
2022/04/01 05:39:34;;;;;;;8.05;7.13;;;2.90;53.90;;;;;;4993271;28;20429;-74
2022/04/01 05:42:00;;;;;;;8.38;7.30;;;2.90;53.40;;;;;;4993511;28;20386;-76
2022/04/01 05:44:26;;;;;;;9.07;7.10;;;3.00;54.30;;;;;;4975878;28;20767;-75
2022/04/01 05:46:54;;;;;;;7.40;6.70;;;3.00;52.20;;;;;;4976397;28;20394;-75
2022/04/01 05:49:21;;;;;;;9.20;6.70;;;2.90;52.40;;;;;;4997797;28;20394;-75
2022/04/01 05:51:46;;;;;;;9.68;7.40;;;3.00;51.10;;;;;;4991374;23;20442;-69
2022/04/01 05:54:15;;;;;;;7.47;6.63;;;3.00;52.70;;;;;;4990657;28;20412;-70
2022/04/01 05:56:45;;;;;;;12.87;7.40;;;3.00;51.70;;;;;;4991143;28;20432;-69
2022/04/01 05:59:13;;;;;;;11.35;7.10;;;3.00;53.00;;;;;;4991201;28;20410;-69
2022/04/01 06:01:47;;;;;;;8.55;6.80;;;3.10;52.80;;;;;;4993016;28;20393;-70
2022/04/01 06:04:49;;;;;;;10.57;7.55;;;3.00;52.60;;;;;;4993208;28;20405;-68
2022/04/01 06:07:42;;;;;;;9.02;6.75;;;3.10;52.60;;;;;;4990985;28;20390;-70
2022/04/01 06:10:18;;;;;;;7.28;6.57;;;3.10;52.60;;;;;;4991022;28;20763;-69
2022/04/01 06:13:08;;;;;;;9.80;7.00;;;3.00;48.50;;;;;;4991032;28;20864;-69
2022/04/01 06:15:55;;;;;;;9.07;7.47;;;3.00;49.70;;;;;;4991321;28;20394;-69
2022/04/01 06:18:48;;;;;;;9.43;7.50;;;3.00;50.80;;;;;;4991058;28;20381;-69
2022/04/01 06:21:17;;;;;;;8.35;7.30;;;3.10;49.70;;;;;;4995176;28;20382;-69
2022/04/01 06:24:02;;;;;;;8.52;7.07;;;3.10;49.40;;;;;;4995242;28;20795;-69
2022/04/01 06:26:34;;;;;;;8.25;6.85;;;3.10;50.10;;;;;;4994841;28;20385;-69
2022/04/01 06:29:22;;;;;;;10.85;7.78;;;3.10;49.80;;;;;;4995654;28;20421;-69
2022/04/01 06:31:53;;;;;;;11.23;7.00;;;3.10;49.50;;;;;;4994519;28;20404;-70
2022/04/01 06:34:23;;;;;;;7.90;7.10;;;3.10;50.90;;;;;;4995098;28;20411;-70
2022/04/01 06:36:56;;;;;;;8.30;6.73;;;3.00;49.50;;;;;;4979571;28;20420;-70
2022/04/01 06:39:58;;;;;;;9.80;7.20;;;3.00;49.60;;;;;;4996980;28;20394;-69
2022/04/01 06:42:26;;;;;;;11.70;6.97;;;3.10;50.00;;;;;;4974569;28;20398;-69
2022/04/01 06:44:52;;;;;;;11.48;7.13;;;3.10;50.10;;;;;;4994845;28;20402;-70
2022/04/01 06:47:18;;;;;;;10.03;7.43;;;3.10;49.50;;;;;;4995554;28;20486;-70
2022/04/01 06:49:44;;;;;;;10.93;6.72;;;3.20;50.00;;;;;;4994751;28;20747;-70
2022/04/01 06:52:09;;;;;;;7.80;7.00;;;3.20;49.70;;;;;;4994192;28;20398;-70
2022/04/01 06:54:36;;;;;;;10.00;7.40;;;3.20;51.00;;;;;;4994584;28;20772;-71
2022/04/01 06:57:01;;;;;;;8.57;6.72;;;3.20;51.40;;;;;;4994509;28;20909;-70
2022/04/01 06:59:27;;;;;;;7.40;6.00;;;3.20;48.00;;;;;;4994455;28;20386;-70
2022/04/01 07:01:52;;;;;;;6.97;6.20;;;3.20;47.70;;;;;;4994334;28;20477;-70
2022/04/01 07:04:18;;;;;;;6.95;5.90;;;3.30;47.00;;;;;;4995506;28;20394;-68
2022/04/01 07:06:43;;;;;;;13.55;7.10;;;3.30;47.90;;;;;;4994490;28;20497;-71
2022/04/01 07:09:09;;;;;;;6.77;5.80;;;3.30;48.90;;;;;;4993871;28;20612;-69
2022/04/01 07:11:35;;;;;;;8.37;5.80;;;3.30;48.40;;;;;;4993859;28;20398;-69
2022/04/01 07:14:00;;;;;;;6.60;5.90;;;3.30;48.00;;;;;;4993858;28;20441;-69
2022/04/01 07:16:26;;;;;;;6.80;5.72;;;3.30;48.00;;;;;;4994172;28;20512;-69
2022/04/01 07:18:51;;;;;;;7.30;6.15;;;3.40;48.10;;;;;;4994047;28;20391;-69
2022/04/01 07:21:17;;;;;;;9.47;6.10;;;3.40;47.90;;;;;;4993881;28;20391;-70
2022/04/01 07:23:43;;;;;;;6.93;5.43;;;3.40;45.50;;;;;;4993945;28;20910;-69
2022/04/01 07:26:09;;;;;;;7.30;5.80;;;3.30;46.60;;;;;;4993708;28;20418;-69
2022/04/01 07:28:35;;;;;;;9.18;6.00;;;3.30;47.00;;;;;;4994170;28;20394;-69
2022/04/01 07:32:29;;;;;;;7.10;5.10;;;3.30;46.00;;;;;;4993753;28;20390;-69
2022/04/01 07:33:46;;;;;;;7.00;5.80;;;3.10;47.20;;;;;;4993926;28;20956;-69
2022/04/01 07:36:12;;;;;;;10.90;6.20;;;3.20;47.80;;;;;;4994356;28;20390;-70
2022/04/01 07:38:39;;;;;;;7.15;5.57;;;3.20;46.80;;;;;;4994625;28;20416;-69
2022/04/01 07:41:05;;;;;;;9.25;5.15;;;3.10;46.20;;;;;;4994373;28;20393;-69
2022/04/01 07:43:31;;;;;;;5.90;5.00;;;3.10;46.90;;;;;;4993794;28;20758;-70
2022/04/01 07:45:57;;;;;;;9.57;6.07;;;3.00;46.80;;;;;;4994244;28;20878;-69
2022/04/01 07:48:23;;;;;;;11.02;6.40;;;2.90;47.70;;;;;;4994814;28;20811;-69
2022/04/01 07:50:49;;;;;;;8.18;5.90;;;3.10;48.70;;;;;;4995059;28;20758;-70
2022/04/01 07:53:16;;;;;;;7.30;5.70;;;3.00;47.50;;;;;;4995933;28;20429;-70
2022/04/01 07:55:43;;;;;;;10.45;6.40;;;3.00;47.10;;;;;;4995308;28;20390;-70
2022/04/01 07:58:09;;;;;;;6.80;6.10;;;3.10;48.80;;;;;;4994897;28;20831;-70
2022/04/01 08:00:35;;;;;;;10.80;6.00;;;3.20;46.50;;;;;;4994363;28;20409;-69
2022/04/01 08:03:01;;;;;;;7.65;5.93;;;3.20;46.10;;;;;;4994261;28;20486;-69
2022/04/01 08:05:27;;;;;;;8.00;6.43;;;3.20;47.40;;;;;;4995342;28;20391;-69
2022/04/01 08:07:53;;;;;;;7.40;5.50;;;3.20;47.80;;;;;;4995510;28;20389;-70
2022/04/01 08:10:18;;;;;;;7.60;6.00;;;3.20;44.20;;;;;;4995408;28;20383;-70
2022/04/01 08:12:44;;;;;;;11.20;6.63;;;3.00;44.90;;;;;;4995953;28;20444;-70
2022/04/01 08:15:11;;;;;;;6.10;5.10;;;3.00;45.80;;;;;;4978456;28;20410;-70
2022/04/01 08:17:36;;;;;;;8.20;6.35;;;2.90;44.80;;;;;;4978664;28;20410;-71
2022/04/01 08:20:03;;;;;;;8.68;6.70;;;2.90;47.40;;;;;;4977380;28;20395;-70
2022/04/01 08:22:28;;;;;;;8.30;7.07;;;3.00;46.90;;;;;;4994385;28;20874;-70
2022/04/01 08:24:54;;;;;;;7.50;5.40;;;3.00;45.60;;;;;;4994064;28;20386;-70
2022/04/01 08:27:20;;;;;;;8.07;6.97;;;2.90;44.90;;;;;;4993737;28;20421;-69
2022/04/01 08:29:46;;;;;;;7.72;6.93;;;2.90;46.20;;;;;;4992566;28;20782;-69
2022/04/01 08:32:11;;;;;;;10.07;6.20;;;2.90;46.00;;;;;;4992682;28;20401;-69
2022/04/01 08:34:37;;;;;;;7.77;6.30;;;2.90;45.00;;;;;;4992788;28;20429;-69
2022/04/01 08:37:05;;;;;;;7.70;6.07;;;3.00;46.10;;;;;;4992517;28;20390;-68
2022/04/01 08:39:31;;;;;;;8.00;6.80;;;3.00;45.00;;;;;;4992588;28;20395;-69
2022/04/01 08:41:57;;;;;;;7.30;6.00;;;3.10;44.60;;;;;;4974228;28;20387;-70
2022/04/01 08:44:23;;;;;;;9.98;5.72;;;3.20;44.20;;;;;;4992424;28;20401;-70
2022/04/01 08:46:49;;;;;;;5.18;4.07;;;3.10;42.60;;;;;;4992490;28;20497;-70
2022/04/01 08:49:14;;;;;;;6.60;5.50;;;3.00;42.20;;;;;;4992436;28;20390;-69
2022/04/01 08:51:40;;;;;;;7.63;5.65;;;2.90;43.30;;;;;;4992064;28;20450;-70
2022/04/01 08:54:07;;;;;;;8.63;6.35;;;2.90;42.90;;;;;;4991326;28;20506;-69
2022/04/01 08:56:33;;;;;;;10.07;6.60;;;3.00;44.90;;;;;;4974806;28;20839;-70
2022/04/01 08:58:59;;;;;;;9.80;5.90;;;3.10;44.20;;;;;;4992319;28;20392;-69
2022/04/01 09:01:37;;;;;;;6.10;5.05;;;3.20;43.30;;;;;;4992374;28;20465;-69
2022/04/01 09:04:19;;;;;;;7.10;5.70;;;3.20;41.40;;;;;;4992346;28;20461;-69
2022/04/01 09:06:45;;;;;;;8.98;6.38;;;3.20;40.70;;;;;;4992419;28;20387;-69
2022/04/01 09:09:24;;;;;;;6.43;4.97;;;3.20;41.00;;;;;;4992243;28;20845;-69
2022/04/01 09:12:13;;;;;;;8.85;6.00;;;3.10;39.30;;;;;;4991294;28;20399;-69
2022/04/01 09:14:40;;;;;;;7.90;5.70;;;3.20;41.90;;;;;;4991799;28;20841;-69
2022/04/01 09:17:10;;;;;;;6.53;4.80;;;3.20;40.10;;;;;;4974599;28;20383;-70
2022/04/01 09:19:38;;;;;;;8.63;5.55;;;3.20;39.20;;;;;;4991719;28;20469;-69
2022/04/01 09:22:22;;;;;;;6.40;5.30;;;3.10;40.60;;;;;;4991378;28;20410;-69
2022/04/01 09:24:58;;;;;;;7.80;5.53;;;3.20;39.80;;;;;;4991719;28;20390;-68
2022/04/01 09:27:43;;;;;;;6.43;5.18;;;3.10;39.60;;;;;;4991373;28;20398;-69
2022/04/01 09:30:15;;;;;;;6.70;5.18;;;3.20;39.70;;;;;;4992055;28;20401;-69
2022/04/01 09:32:50;;;;;;;8.07;5.60;;;3.20;38.20;;;;;;4991386;28;20899;-69
2022/04/01 09:35:17;;;;;;;7.50;5.93;;;3.30;39.30;;;;;;4991630;28;21017;-69
2022/04/01 09:37:45;;;;;;;8.20;5.80;;;3.40;39.10;;;;;;4992303;28;20391;-69
2022/04/01 09:40:13;;;;;;;9.13;6.00;;;3.40;38.00;;;;;;4992160;28;20474;-70
2022/04/01 09:42:45;;;;;;;7.03;5.47;;;3.50;37.90;;;;;;4991201;28;20382;-70
2022/04/01 09:45:24;;;;;;;7.38;5.35;;;3.70;37.20;;;;;;4988241;28;20443;-69
2022/04/01 09:48:01;;;;;;;7.30;4.70;;;3.60;36.60;;;;;;4965458;28;20402;-69
2022/04/01 09:50:30;;;;;;;6.60;4.90;;;3.50;35.70;;;;;;4978947;28;20423;-69
2022/04/01 09:53:12;;;;;;;7.97;4.75;;;3.50;35.90;;;;;;4971813;28;20404;-69
2022/04/01 09:55:39;;;;;;;6.47;5.78;;;3.50;34.80;;;;;;4971634;28;20470;-68
2022/04/01 09:58:06;;;;;;;7.05;5.53;;;3.50;36.40;;;;;;4972296;28;20511;-69
2022/04/01 10:00:33;;;;;;;8.77;5.50;;;3.60;36.40;;;;;;4972279;28;20836;-70
2022/04/01 10:02:59;;;;;;;12.40;5.57;;;3.70;35.20;;;;;;4982966;28;20485;-70
2022/04/01 10:05:26;;;;;;;10.15;7.30;;;3.50;35.20;;;;;;4991539;28;20477;-71
2022/04/01 10:07:56;;;;;;;15.98;7.25;;;3.50;36.30;;;;;;4991463;28;20488;-69
2022/04/01 10:10:22;;;;;;;8.65;6.90;;;3.50;37.40;;;;;;4991304;28;20525;-69
2022/04/01 10:12:49;;;;;;;7.80;6.00;;;3.50;35.00;;;;;;4990797;28;20425;-70
2022/04/01 10:15:16;;;;;;;9.73;7.28;;;3.40;35.20;;;;;;4973580;28;20768;-69
2022/04/01 10:17:42;;;;;;;8.70;6.50;;;3.30;36.30;;;;;;4991261;28;20731;-69
2022/04/01 10:20:12;;;;;;;6.55;5.80;;;3.40;36.00;;;;;;4979173;28;20437;-70
2022/04/01 10:22:40;;;;;;;8.57;6.07;;;3.50;37.00;;;;;;4971558;28;20459;-70
2022/04/01 10:25:16;;;;;;;8.90;6.53;;;3.60;35.90;;;;;;4971449;28;20403;-69
2022/04/01 10:27:50;;;;;;;8.82;6.13;;;3.70;35.30;;;;;;4971928;28;20400;-70
2022/04/01 10:30:18;;;;;;;9.63;5.40;;;3.70;34.00;;;;;;4971771;28;20529;-71
2022/04/01 10:32:49;;;;;;;10.73;6.25;;;3.50;34.60;;;;;;4973142;28;20854;-71
2022/04/01 10:35:23;;;;;;;6.20;5.60;;;3.50;34.60;;;;;;4971477;28;20494;-70
2022/04/01 10:38:12;;;;;;;12.80;6.43;;;3.50;35.20;;;;;;4972625;28;20931;-70
2022/04/01 10:40:40;;;;;;;6.82;5.57;;;3.60;34.10;;;;;;4971332;28;20395;-69
2022/04/01 10:43:11;;;;;;;8.00;5.10;;;3.70;34.30;;;;;;4971071;28;20821;-69
2022/04/01 10:45:39;;;;;;;14.40;6.20;;;3.80;33.10;;;;;;4971118;28;20392;-70
2022/04/01 10:51:38;;;;;;;7.55;5.90;;;3.80;32.80;;;;;;4971666;28;20391;-69
2022/04/01 10:54:10;;;;;;;9.60;6.22;;;3.80;33.30;;;;;;4941358;28;20416;-69
2022/04/01 10:56:36;;;;;;;7.70;6.25;;;3.80;33.80;;;;;;4971909;28;20499;-68
2022/04/01 10:59:11;;;;;;;10.10;6.63;;;3.80;34.20;;;;;;4971478;28;20741;-68
2022/04/01 11:02:03;;;;;;;9.80;5.95;;;3.80;35.30;;;;;;4971746;28;20409;-71
2022/04/01 11:04:31;;;;;;;6.28;5.68;;;3.80;32.90;;;;;;4972264;28;20396;-70
2022/04/01 11:07:01;;;;;;;7.95;6.30;;;3.70;33.90;;;;;;4975736;28;20384;-69
2022/04/01 11:09:41;;;;;;;7.93;6.47;;;3.50;34.70;;;;;;4975715;28;20384;-70
2022/04/01 11:12:16;;;;;;;7.10;5.60;;;3.60;35.50;;;;;;4975084;28;20388;-69
2022/04/01 11:14:56;;;;;;;9.07;6.60;;;3.60;34.90;;;;;;4975514;28;20499;-69
2022/04/01 11:17:25;;;;;;;8.38;5.45;;;3.60;34.00;;;;;;4975175;28;20396;-70
2022/04/01 11:20:04;;;;;;;8.05;5.55;;;3.50;34.40;;;;;;4974904;28;20479;-70
2022/04/01 11:22:40;;;;;;;6.23;5.40;;;3.60;33.80;;;;;;4975319;28;20753;-68
2022/04/01 11:25:36;;;;;;;6.10;5.13;;;3.60;34.20;;;;;;4975083;28;20511;-70
2022/04/01 11:28:14;;;;;;;9.07;6.25;;;3.70;32.90;;;;;;4975369;28;20396;-70
2022/04/01 11:30:53;;;;;;;8.13;5.50;;;3.80;33.90;;;;;;4974938;28;20388;-69
2022/04/01 11:33:20;;;;;;;7.40;5.40;;;3.80;33.30;;;;;;4975663;28;20694;-73
2022/04/01 11:35:50;;;;;;;9.57;5.80;;;3.80;33.40;;;;;;4974987;28;20384;-69
2022/04/01 11:38:19;;;;;;;9.73;6.50;;;3.80;33.40;;;;;;4975266;28;20774;-70
2022/04/01 11:40:47;;;;;;;10.43;7.97;;;3.80;34.30;;;;;;4974402;28;20941;-69
2022/04/01 11:43:17;;;;;;;9.70;5.90;;;3.90;34.20;;;;;;4975323;28;20424;-70
2022/04/01 11:45:48;;;;;;;11.00;6.43;;;3.80;34.00;;;;;;4974715;28;20392;-70
2022/04/01 11:48:14;;;;;;;10.27;6.82;;;3.80;35.20;;;;;;4974571;28;20387;-68
2022/04/01 11:50:51;;;;;;;8.87;6.70;;;3.80;34.90;;;;;;4974455;28;20385;-71
2022/04/01 11:53:30;;;;;;;7.05;6.13;;;3.90;34.50;;;;;;5003879;23;20465;-76
2022/04/01 11:55:56;;;;;;;9.80;6.28;;;3.80;35.10;;;;;;4995792;28;20428;-76
2022/04/01 11:58:22;;;;;;;8.95;6.10;;;3.90;35.20;;;;;;4995215;28;20414;-75
2022/04/01 12:00:48;;;;;;;9.77;6.43;;;3.90;35.70;;;;;;4994829;28;20464;-77
2022/04/01 12:03:14;;;;;;;7.90;5.88;;;3.80;35.60;;;;;;4997268;28;20378;-77
2022/04/01 12:05:40;;;;;;;8.30;5.93;;;3.90;35.70;;;;;;4979615;28;20558;-77
2022/04/01 12:10:58;;;;;;;7.13;5.87;;;3.70;35.90;;;;;;5009993;28;20390;-77
2022/04/01 12:13:26;;;;;;;7.57;5.70;;;3.60;36.30;;;;;;5005711;28;20387;-75
2022/04/01 12:15:53;;;;;;;8.25;6.15;;;3.60;36.50;;;;;;4995490;28;20391;-75
2022/04/01 12:18:22;;;;;;;9.75;4.93;;;3.60;37.20;;;;;;4976438;28;20401;-77
2022/04/01 12:21:00;;;;;;;7.78;5.80;;;3.60;36.20;;;;;;4995772;28;20473;-75
2022/04/01 12:23:32;;;;;;;10.90;6.13;;;3.60;37.40;;;;;;4977030;28;20410;-79
2022/04/01 12:25:59;;;;;;;8.13;5.85;;;3.70;37.60;;;;;;4995364;28;20386;-76
2022/04/01 12:28:43;;;;;;;7.10;5.13;;;3.80;37.30;;;;;;4995998;28;20407;-76
2022/04/01 12:31:20;;;;;;;7.30;5.40;;;3.70;38.00;;;;;;4994920;28;20390;-74
2022/04/01 12:33:54;;;;;;;8.07;5.15;;;3.70;37.60;;;;;;4995187;28;20405;-75
2022/04/01 12:36:38;;;;;;;10.43;5.43;;;3.80;37.60;;;;;;4978788;28;20402;-75
2022/04/01 12:39:12;;;;;;;8.10;6.70;;;3.80;38.50;;;;;;4994270;28;20836;-76
2022/04/01 12:42:11;;;;;;;10.57;6.38;;;3.90;40.40;;;;;;4994981;28;20867;-76
2022/04/01 12:44:41;;;;;;;8.98;6.00;;;4.10;38.80;;;;;;4924998;28;20481;-76
2022/04/01 12:47:07;;;;;;;8.75;6.43;;;4.00;38.70;;;;;;4995098;28;20389;-77
2022/04/01 12:49:34;;;;;;;10.23;6.38;;;3.90;41.50;;;;;;4994618;28;20474;-76
2022/04/01 12:52:14;;;;;;;9.30;6.60;;;3.80;41.20;;;;;;4995681;28;20386;-77
2022/04/01 12:54:42;;;;;;;8.70;6.40;;;3.60;45.30;;;;;;4979009;28;20410;-77
2022/04/01 12:57:13;;;;;;;7.10;6.22;;;3.80;46.90;;;;;;4980017;28;20402;-75
2022/04/01 12:59:45;;;;;;;8.27;6.32;;;3.80;43.40;;;;;;4999346;28;20387;-77
2022/04/01 13:02:14;;;;;;;10.10;7.25;;;3.80;43.10;;;;;;4997977;28;20445;-77
2022/04/01 13:04:45;;;;;;;10.10;7.43;;;3.80;45.80;;;;;;5001678;28;20390;-76
2022/04/01 13:07:21;;;;;;;10.40;6.95;;;3.80;45.60;;;;;;4999080;28;20402;-76
2022/04/01 13:09:56;;;;;;;8.90;6.47;;;3.70;45.60;;;;;;4993479;28;20504;-77
2022/04/01 13:12:34;;;;;;;8.53;6.43;;;3.60;46.90;;;;;;4993511;28;20413;-77
2022/04/01 13:15:05;;;;;;;9.23;7.00;;;3.60;48.20;;;;;;4992851;28;20815;-77